sensor_id;sensor_type;location;lat;lon;timestamp;P1;durP1;ratioP1;P2;durP2;ratioP2
43226;SDS011;28839;52.404;9.808;2023-05-07T00:04:46;29.42;;;21.92;;
43226;SDS011;28839;52.404;9.808;2023-05-07T00:11:40;33.43;;;23.20;;
43226;SDS011;28839;52.404;9.808;2023-05-07T00:18:35;28.98;;;21.85;;
43226;SDS011;28839;52.404;9.808;2023-05-07T00:25:29;36.45;;;24.30;;
43226;SDS011;28839;52.404;9.808;2023-05-07T00:32:23;34.88;;;24.95;;
43226;SDS011;28839;52.404;9.808;2023-05-07T00:39:18;31.65;;;23.17;;
43226;SDS011;28839;52.404;9.808;2023-05-07T00:46:12;32.20;;;22.98;;
43226;SDS011;28839;52.404;9.808;2023-05-07T00:53:07;32.85;;;24.05;;
43226;SDS011;28839;52.404;9.808;2023-05-07T01:00:03;37.63;;;25.00;;
43226;SDS011;28839;52.404;9.808;2023-05-07T01:14:47;40.33;;;26.50;;
43226;SDS011;28839;52.404;9.808;2023-05-07T01:21:44;39.95;;;28.30;;
43226;SDS011;28839;52.404;9.808;2023-05-07T01:28:42;38.50;;;25.48;;
43226;SDS011;28839;52.404;9.808;2023-05-07T01:35:37;40.35;;;28.95;;
43226;SDS011;28839;52.404;9.808;2023-05-07T01:42:33;38.00;;;26.77;;
43226;SDS011;28839;52.404;9.808;2023-05-07T01:49:28;36.63;;;25.70;;
43226;SDS011;28839;52.404;9.808;2023-05-07T01:56:23;31.40;;;21.05;;
43226;SDS011;28839;52.404;9.808;2023-05-07T02:03:17;36.95;;;22.45;;
43226;SDS011;28839;52.404;9.808;2023-05-07T02:10:12;25.37;;;19.00;;
43226;SDS011;28839;52.404;9.808;2023-05-07T02:17:05;24.83;;;17.67;;
43226;SDS011;28839;52.404;9.808;2023-05-07T02:23:59;21.92;;;15.43;;
43226;SDS011;28839;52.404;9.808;2023-05-07T02:30:54;21.02;;;15.00;;
43226;SDS011;28839;52.404;9.808;2023-05-07T02:37:50;18.95;;;14.02;;
43226;SDS011;28839;52.404;9.808;2023-05-07T02:44:44;20.98;;;15.45;;
43226;SDS011;28839;52.404;9.808;2023-05-07T02:51:39;20.65;;;14.57;;
43226;SDS011;28839;52.404;9.808;2023-05-07T02:58:33;23.77;;;15.93;;
43226;SDS011;28839;52.404;9.808;2023-05-07T03:05:27;19.85;;;14.30;;
43226;SDS011;28839;52.404;9.808;2023-05-07T03:12:22;21.52;;;15.45;;
43226;SDS011;28839;52.404;9.808;2023-05-07T03:19:16;21.87;;;15.77;;
43226;SDS011;28839;52.404;9.808;2023-05-07T03:26:09;24.23;;;17.83;;
43226;SDS011;28839;52.404;9.808;2023-05-07T03:33:05;24.27;;;16.85;;
43226;SDS011;28839;52.404;9.808;2023-05-07T03:39:58;22.17;;;15.85;;
43226;SDS011;28839;52.404;9.808;2023-05-07T03:46:52;24.75;;;17.17;;
43226;SDS011;28839;52.404;9.808;2023-05-07T03:53:48;19.58;;;14.05;;
43226;SDS011;28839;52.404;9.808;2023-05-07T04:00:44;20.73;;;13.62;;
43226;SDS011;28839;52.404;9.808;2023-05-07T04:07:38;17.60;;;12.80;;
43226;SDS011;28839;52.404;9.808;2023-05-07T04:14:33;15.52;;;12.37;;
43226;SDS011;28839;52.404;9.808;2023-05-07T04:21:27;15.50;;;12.05;;
43226;SDS011;28839;52.404;9.808;2023-05-07T04:28:22;16.55;;;12.82;;
43226;SDS011;28839;52.404;9.808;2023-05-07T04:35:17;21.37;;;14.65;;
43226;SDS011;28839;52.404;9.808;2023-05-07T04:42:14;21.20;;;14.52;;
43226;SDS011;28839;52.404;9.808;2023-05-07T04:49:08;19.77;;;15.40;;
43226;SDS011;28839;52.404;9.808;2023-05-07T04:56:03;19.43;;;13.80;;
43226;SDS011;28839;52.404;9.808;2023-05-07T05:02:57;18.77;;;14.30;;
43226;SDS011;28839;52.404;9.808;2023-05-07T05:09:51;20.00;;;12.57;;
43226;SDS011;28839;52.404;9.808;2023-05-07T05:16:46;16.35;;;12.80;;
43226;SDS011;28839;52.404;9.808;2023-05-07T05:23:40;16.33;;;11.40;;
43226;SDS011;28839;52.404;9.808;2023-05-07T05:30:34;13.98;;;11.15;;
43226;SDS011;28839;52.404;9.808;2023-05-07T05:37:29;14.30;;;11.43;;
43226;SDS011;28839;52.404;9.808;2023-05-07T05:44:23;12.48;;;10.30;;
43226;SDS011;28839;52.404;9.808;2023-05-07T05:51:17;13.98;;;10.18;;
43226;SDS011;28839;52.404;9.808;2023-05-07T05:58:12;13.25;;;10.05;;
43226;SDS011;28839;52.404;9.808;2023-05-07T06:05:07;11.45;;;9.05;;
43226;SDS011;28839;52.404;9.808;2023-05-07T06:12:01;23.12;;;9.70;;
43226;SDS011;28839;52.404;9.808;2023-05-07T06:18:56;10.63;;;9.52;;
43226;SDS011;28839;52.404;9.808;2023-05-07T06:25:50;12.00;;;9.93;;
43226;SDS011;28839;52.404;9.808;2023-05-07T06:32:44;11.33;;;10.07;;
43226;SDS011;28839;52.404;9.808;2023-05-07T06:39:40;11.30;;;10.07;;
43226;SDS011;28839;52.404;9.808;2023-05-07T06:46:33;12.90;;;11.00;;
43226;SDS011;28839;52.404;9.808;2023-05-07T06:53:29;12.50;;;11.20;;
43226;SDS011;28839;52.404;9.808;2023-05-07T07:00:24;15.32;;;13.10;;
43226;SDS011;28839;52.404;9.808;2023-05-07T07:07:18;15.75;;;13.80;;
43226;SDS011;28839;52.404;9.808;2023-05-07T07:14:12;15.95;;;13.68;;
43226;SDS011;28839;52.404;9.808;2023-05-07T07:21:07;16.23;;;13.87;;
43226;SDS011;28839;52.404;9.808;2023-05-07T07:28:01;14.05;;;12.50;;
43226;SDS011;28839;52.404;9.808;2023-05-07T07:34:55;14.82;;;13.23;;
43226;SDS011;28839;52.404;9.808;2023-05-07T07:41:50;15.45;;;13.07;;
43226;SDS011;28839;52.404;9.808;2023-05-07T07:48:44;12.90;;;11.60;;
43226;SDS011;28839;52.404;9.808;2023-05-07T07:55:38;13.00;;;10.67;;
43226;SDS011;28839;52.404;9.808;2023-05-07T08:02:33;11.63;;;9.67;;
43226;SDS011;28839;52.404;9.808;2023-05-07T08:09:27;11.95;;;10.48;;
43226;SDS011;28839;52.404;9.808;2023-05-07T08:16:21;11.73;;;9.55;;
43226;SDS011;28839;52.404;9.808;2023-05-07T08:23:16;11.23;;;9.07;;
43226;SDS011;28839;52.404;9.808;2023-05-07T08:30:11;12.25;;;9.82;;
43226;SDS011;28839;52.404;9.808;2023-05-07T08:37:05;11.05;;;9.35;;
43226;SDS011;28839;52.404;9.808;2023-05-07T08:44:00;10.82;;;9.73;;
43226;SDS011;28839;52.404;9.808;2023-05-07T08:50:57;11.73;;;9.98;;
43226;SDS011;28839;52.404;9.808;2023-05-07T08:57:52;13.25;;;11.52;;
43226;SDS011;28839;52.404;9.808;2023-05-07T09:04:47;12.75;;;10.55;;
43226;SDS011;28839;52.404;9.808;2023-05-07T09:11:41;12.35;;;10.55;;
43226;SDS011;28839;52.404;9.808;2023-05-07T09:18:34;12.93;;;11.53;;
43226;SDS011;28839;52.404;9.808;2023-05-07T09:25:34;12.43;;;10.60;;
43226;SDS011;28839;52.404;9.808;2023-05-07T09:32:29;12.40;;;11.05;;
43226;SDS011;28839;52.404;9.808;2023-05-07T09:39:23;12.32;;;10.38;;
43226;SDS011;28839;52.404;9.808;2023-05-07T09:46:19;26.23;;;10.35;;
43226;SDS011;28839;52.404;9.808;2023-05-07T09:53:18;12.43;;;11.18;;
43226;SDS011;28839;52.404;9.808;2023-05-07T10:00:13;13.30;;;11.90;;
43226;SDS011;28839;52.404;9.808;2023-05-07T10:07:09;13.52;;;11.75;;
43226;SDS011;28839;52.404;9.808;2023-05-07T10:14:04;12.55;;;9.88;;
43226;SDS011;28839;52.404;9.808;2023-05-07T10:28:06;13.35;;;11.88;;
43226;SDS011;28839;52.404;9.808;2023-05-07T10:35:02;13.43;;;12.07;;
43226;SDS011;28839;52.404;9.808;2023-05-07T10:42:07;11.98;;;10.77;;
43226;SDS011;28839;52.404;9.808;2023-05-07T10:49:12;11.60;;;10.38;;
43226;SDS011;28839;52.404;9.808;2023-05-07T10:56:23;11.12;;;9.82;;
43226;SDS011;28839;52.404;9.808;2023-05-07T11:03:21;9.32;;;8.32;;
43226;SDS011;28839;52.404;9.808;2023-05-07T11:10:16;9.17;;;8.27;;
43226;SDS011;28839;52.404;9.808;2023-05-07T11:17:10;9.95;;;8.52;;
43226;SDS011;28839;52.404;9.808;2023-05-07T11:24:05;9.68;;;8.75;;
43226;SDS011;28839;52.404;9.808;2023-05-07T11:31:01;9.57;;;8.65;;
43226;SDS011;28839;52.404;9.808;2023-05-07T11:37:57;8.70;;;7.78;;
43226;SDS011;28839;52.404;9.808;2023-05-07T11:44:52;9.50;;;8.00;;
43226;SDS011;28839;52.404;9.808;2023-05-07T11:51:47;9.07;;;8.17;;
43226;SDS011;28839;52.404;9.808;2023-05-07T11:58:42;8.60;;;7.65;;
43226;SDS011;28839;52.404;9.808;2023-05-07T12:05:37;10.68;;;8.43;;
43226;SDS011;28839;52.404;9.808;2023-05-07T12:12:39;7.70;;;6.87;;
43226;SDS011;28839;52.404;9.808;2023-05-07T12:19:33;8.70;;;7.75;;
43226;SDS011;28839;52.404;9.808;2023-05-07T12:26:28;7.90;;;6.65;;
43226;SDS011;28839;52.404;9.808;2023-05-07T12:33:25;7.83;;;7.07;;
43226;SDS011;28839;52.404;9.808;2023-05-07T12:40:20;7.30;;;6.47;;
43226;SDS011;28839;52.404;9.808;2023-05-07T12:47:14;6.23;;;5.63;;
43226;SDS011;28839;52.404;9.808;2023-05-07T12:54:09;6.53;;;5.70;;
43226;SDS011;28839;52.404;9.808;2023-05-07T13:01:04;7.82;;;6.28;;
43226;SDS011;28839;52.404;9.808;2023-05-07T13:07:59;7.87;;;6.72;;
43226;SDS011;28839;52.404;9.808;2023-05-07T13:14:54;6.53;;;5.80;;
43226;SDS011;28839;52.404;9.808;2023-05-07T13:21:48;8.25;;;7.35;;
43226;SDS011;28839;52.404;9.808;2023-05-07T13:28:42;7.60;;;6.83;;
43226;SDS011;28839;52.404;9.808;2023-05-07T13:35:37;8.70;;;7.73;;
43226;SDS011;28839;52.404;9.808;2023-05-07T13:42:31;7.97;;;7.28;;
43226;SDS011;28839;52.404;9.808;2023-05-07T13:49:25;9.60;;;8.30;;
43226;SDS011;28839;52.404;9.808;2023-05-07T13:56:20;8.67;;;7.73;;
43226;SDS011;28839;52.404;9.808;2023-05-07T14:03:15;7.47;;;6.78;;
43226;SDS011;28839;52.404;9.808;2023-05-07T14:10:10;8.57;;;7.43;;
43226;SDS011;28839;52.404;9.808;2023-05-07T14:17:06;7.65;;;6.85;;
43226;SDS011;28839;52.404;9.808;2023-05-07T14:24:00;8.85;;;7.30;;
43226;SDS011;28839;52.404;9.808;2023-05-07T14:30:54;7.10;;;6.40;;
43226;SDS011;28839;52.404;9.808;2023-05-07T14:37:49;6.47;;;5.77;;
43226;SDS011;28839;52.404;9.808;2023-05-07T14:44:43;7.15;;;6.45;;
43226;SDS011;28839;52.404;9.808;2023-05-07T14:51:38;7.40;;;6.60;;
43226;SDS011;28839;52.404;9.808;2023-05-07T14:58:33;10.73;;;6.87;;
43226;SDS011;28839;52.404;9.808;2023-05-07T15:05:27;7.43;;;6.55;;
43226;SDS011;28839;52.404;9.808;2023-05-07T15:12:21;9.70;;;7.03;;
43226;SDS011;28839;52.404;9.808;2023-05-07T15:19:16;8.13;;;7.07;;
43226;SDS011;28839;52.404;9.808;2023-05-07T15:26:10;8.07;;;7.15;;
43226;SDS011;28839;52.404;9.808;2023-05-07T15:33:04;7.97;;;6.50;;
43226;SDS011;28839;52.404;9.808;2023-05-07T15:39:59;8.13;;;6.87;;
43226;SDS011;28839;52.404;9.808;2023-05-07T15:46:54;8.65;;;7.57;;
43226;SDS011;28839;52.404;9.808;2023-05-07T15:53:48;8.83;;;7.33;;
43226;SDS011;28839;52.404;9.808;2023-05-07T16:00:44;8.00;;;7.20;;
43226;SDS011;28839;52.404;9.808;2023-05-07T16:07:40;8.35;;;7.45;;
43226;SDS011;28839;52.404;9.808;2023-05-07T16:14:35;8.30;;;7.47;;
43226;SDS011;28839;52.404;9.808;2023-05-07T16:21:30;9.07;;;7.53;;
43226;SDS011;28839;52.404;9.808;2023-05-07T16:28:26;9.80;;;8.52;;
43226;SDS011;28839;52.404;9.808;2023-05-07T16:35:20;8.63;;;7.73;;
43226;SDS011;28839;52.404;9.808;2023-05-07T16:42:15;8.40;;;7.53;;
43226;SDS011;28839;52.404;9.808;2023-05-07T16:49:09;12.55;;;10.15;;
43226;SDS011;28839;52.404;9.808;2023-05-07T16:56:03;11.10;;;10.00;;
43226;SDS011;28839;52.404;9.808;2023-05-07T17:03:01;12.02;;;9.02;;
43226;SDS011;28839;52.404;9.808;2023-05-07T17:09:55;9.68;;;8.68;;
43226;SDS011;28839;52.404;9.808;2023-05-07T17:16:49;8.17;;;7.37;;
43226;SDS011;28839;52.404;9.808;2023-05-07T17:23:44;7.27;;;6.57;;
43226;SDS011;28839;52.404;9.808;2023-05-07T17:30:38;8.32;;;7.47;;
43226;SDS011;28839;52.404;9.808;2023-05-07T17:37:31;8.63;;;7.73;;
43226;SDS011;28839;52.404;9.808;2023-05-07T17:44:27;8.40;;;7.60;;
43226;SDS011;28839;52.404;9.808;2023-05-07T17:51:21;9.40;;;7.85;;
43226;SDS011;28839;52.404;9.808;2023-05-07T17:58:14;10.17;;;7.57;;
43226;SDS011;28839;52.404;9.808;2023-05-07T18:05:10;8.77;;;7.93;;
43226;SDS011;28839;52.404;9.808;2023-05-07T18:12:04;9.35;;;7.95;;
43226;SDS011;28839;52.404;9.808;2023-05-07T18:18:58;11.57;;;8.48;;
43226;SDS011;28839;52.404;9.808;2023-05-07T18:25:53;8.17;;;6.90;;
43226;SDS011;28839;52.404;9.808;2023-05-07T18:32:47;7.87;;;7.07;;
43226;SDS011;28839;52.404;9.808;2023-05-07T18:39:41;9.47;;;8.40;;
43226;SDS011;28839;52.404;9.808;2023-05-07T18:46:36;7.80;;;7.05;;
43226;SDS011;28839;52.404;9.808;2023-05-07T18:53:30;9.18;;;6.78;;
43226;SDS011;28839;52.404;9.808;2023-05-07T19:00:24;7.37;;;6.68;;
43226;SDS011;28839;52.404;9.808;2023-05-07T19:07:19;7.93;;;6.93;;
43226;SDS011;28839;52.404;9.808;2023-05-07T19:14:13;6.82;;;6.12;;
43226;SDS011;28839;52.404;9.808;2023-05-07T19:21:07;7.63;;;6.07;;
43226;SDS011;28839;52.404;9.808;2023-05-07T19:28:03;8.87;;;6.50;;
43226;SDS011;28839;52.404;9.808;2023-05-07T19:34:57;8.10;;;6.20;;
43226;SDS011;28839;52.404;9.808;2023-05-07T19:41:50;8.23;;;6.20;;
43226;SDS011;28839;52.404;9.808;2023-05-07T19:48:46;6.45;;;5.72;;
43226;SDS011;28839;52.404;9.808;2023-05-07T19:55:39;6.32;;;5.68;;
43226;SDS011;28839;52.404;9.808;2023-05-07T20:02:33;8.88;;;6.37;;
43226;SDS011;28839;52.404;9.808;2023-05-07T20:09:30;6.60;;;5.93;;
43226;SDS011;28839;52.404;9.808;2023-05-07T20:16:29;7.30;;;6.40;;
43226;SDS011;28839;52.404;9.808;2023-05-07T20:23:25;8.73;;;6.35;;
43226;SDS011;28839;52.404;9.808;2023-05-07T20:30:20;6.73;;;6.03;;
43226;SDS011;28839;52.404;9.808;2023-05-07T20:37:15;6.87;;;6.15;;
43226;SDS011;28839;52.404;9.808;2023-05-07T20:44:09;7.20;;;6.12;;
43226;SDS011;28839;52.404;9.808;2023-05-07T20:51:04;6.40;;;5.80;;
43226;SDS011;28839;52.404;9.808;2023-05-07T20:57:58;6.82;;;6.20;;
43226;SDS011;28839;52.404;9.808;2023-05-07T21:04:52;6.60;;;6.00;;
43226;SDS011;28839;52.404;9.808;2023-05-07T21:11:47;8.93;;;7.12;;
43226;SDS011;28839;52.404;9.808;2023-05-07T21:18:41;9.88;;;6.78;;
43226;SDS011;28839;52.404;9.808;2023-05-07T21:25:35;9.23;;;7.43;;
43226;SDS011;28839;52.404;9.808;2023-05-07T21:32:31;9.80;;;8.00;;
43226;SDS011;28839;52.404;9.808;2023-05-07T21:39:25;8.32;;;7.43;;
43226;SDS011;28839;52.404;9.808;2023-05-07T21:46:19;9.50;;;8.60;;
43226;SDS011;28839;52.404;9.808;2023-05-07T21:53:14;10.20;;;8.43;;
43226;SDS011;28839;52.404;9.808;2023-05-07T22:00:09;9.95;;;8.85;;
43226;SDS011;28839;52.404;9.808;2023-05-07T22:07:03;9.65;;;8.23;;
43226;SDS011;28839;52.404;9.808;2023-05-07T22:13:58;10.43;;;8.17;;
43226;SDS011;28839;52.404;9.808;2023-05-07T22:20:52;10.25;;;8.35;;
43226;SDS011;28839;52.404;9.808;2023-05-07T22:27:46;11.50;;;9.00;;
43226;SDS011;28839;52.404;9.808;2023-05-07T22:34:42;11.57;;;9.20;;
43226;SDS011;28839;52.404;9.808;2023-05-07T22:41:36;10.90;;;9.75;;
43226;SDS011;28839;52.404;9.808;2023-05-07T22:48:30;11.75;;;10.20;;
43226;SDS011;28839;52.404;9.808;2023-05-07T22:55:26;10.68;;;9.57;;
43226;SDS011;28839;52.404;9.808;2023-05-07T23:02:20;16.40;;;10.27;;
43226;SDS011;28839;52.404;9.808;2023-05-07T23:09:14;10.90;;;9.80;;
43226;SDS011;28839;52.404;9.808;2023-05-07T23:16:09;9.48;;;8.45;;
43226;SDS011;28839;52.404;9.808;2023-05-07T23:23:03;10.52;;;9.38;;
43226;SDS011;28839;52.404;9.808;2023-05-07T23:29:57;9.35;;;8.45;;
43226;SDS011;28839;52.404;9.808;2023-05-07T23:36:52;10.82;;;9.50;;
43226;SDS011;28839;52.404;9.808;2023-05-07T23:43:46;12.18;;;9.75;;
43226;SDS011;28839;52.404;9.808;2023-05-07T23:50:40;13.37;;;9.93;;
43226;SDS011;28839;52.404;9.808;2023-05-07T23:57:35;10.95;;;9.68;;
